Time;durP1;ratioP1;P1;durP2;ratioP2;P2;SDS_P1;SDS_P2;PMS_P1;PMS_P2;Temp;Humidity;BMP_temperature;BMP_pressure;BME280_temperature;BME280_humidity;BME280_pressure;Samples;Min_cycle;Max_cycle;Signal;HPM_P1;HPM_P2
2022/04/12 00:00:38;;;;;;;;;;;12.00;99.90;;;;;;5051138;28;19948;-70
2022/04/12 00:03:05;;;;;;;;;;;12.00;99.90;;;;;;5051962;28;20023;-69
2022/04/12 00:05:32;;;;;;;;;;;12.00;99.90;;;;;;5051597;28;19919;-68
2022/04/12 00:07:58;;;;;;;;;;;12.00;99.90;;;;;;5051472;28;19913;-69
2022/04/12 00:10:25;;;;;;;;;;;11.90;99.90;;;;;;5051735;28;19909;-70
2022/04/12 00:12:51;;;;;;;;;;;11.90;99.90;;;;;;5051457;28;20372;-70
2022/04/12 00:15:16;;;;;;;;;;;11.90;99.90;;;;;;5051600;28;19909;-69
2022/04/12 00:20:26;;;;;;;;;;;11.90;99.90;;;;;;5051578;28;20397;-69
2022/04/12 00:22:56;;;;;;;;;;;11.90;99.90;;;;;;5051413;28;20015;-69
2022/04/12 00:25:22;;;;;;;;;;;12.00;99.90;;;;;;5051260;28;20048;-69
2022/04/12 00:27:49;;;;;;;;;;;12.00;99.90;;;;;;5051150;28;20007;-69
2022/04/12 00:30:15;;;;;;;;;;;12.00;99.90;;;;;;5051286;28;19916;-70
2022/04/12 00:32:41;;;;;;;;;;;12.00;99.90;;;;;;5051149;28;19909;-69
2022/04/12 00:35:08;;;;;;;;;;;11.90;99.90;;;;;;5054861;28;19939;-66
2022/04/12 00:37:35;;;;;;;;;;;12.00;99.90;;;;;;5069973;28;19919;-67
2022/04/12 00:40:01;;;;;;;;;;;11.90;99.90;;;;;;5050212;28;19912;-68
2022/04/12 00:42:27;;;;;;;;;;;12.00;99.90;;;;;;5070774;28;19916;-68
2022/04/12 00:44:52;;;;;;;;;;;12.00;99.90;;;;;;5067538;28;20018;-65
2022/04/12 00:47:18;;;;;;;;;;;12.00;99.90;;;;;;5065329;28;19924;-66
2022/04/12 00:49:44;;;;;;;;;;;12.00;99.90;;;;;;5069811;28;19909;-66
2022/04/12 00:52:10;;;;;;;;;;;11.90;99.90;;;;;;5069645;28;19995;-68
2022/04/12 00:54:37;;;;;;;;;;;11.90;99.90;;;;;;5069758;28;19909;-67
2022/04/12 00:57:04;;;;;;;;;;;11.80;99.90;;;;;;5051776;28;20330;-67
2022/04/12 00:59:33;;;;;;;;;;;11.90;99.90;;;;;;5069711;28;19931;-66
2022/04/12 01:02:01;;;;;;;;;;;11.80;99.90;;;;;;5069466;28;19908;-68
2022/04/12 01:04:27;;;;;;;;;;;11.80;99.90;;;;;;5069595;28;19912;-67
2022/04/12 01:06:52;;;;;;;;;;;11.80;99.90;;;;;;5065894;28;19912;-64
2022/04/12 01:09:18;;;;;;;;;;;11.80;99.90;;;;;;5065158;28;19917;-68
2022/04/12 01:11:48;;;;;;;;;;;11.80;99.90;;;;;;5072544;28;20242;-70
2022/04/12 01:14:15;;;;;;;;;;;11.80;99.90;;;;;;5074778;28;19916;-70
2022/04/12 01:16:40;;;;;;;;;;;11.70;99.90;;;;;;5074769;28;19931;-69
2022/04/12 01:19:06;;;;;;;;;;;11.70;99.90;;;;;;5074811;28;20423;-69
2022/04/12 01:21:35;;;;;;;;;;;11.80;99.90;;;;;;5074748;28;20380;-69
2022/04/12 01:24:05;;;;;;;;;;;11.70;99.90;;;;;;5074991;28;20324;-68
2022/04/12 01:26:32;;;;;;;;;;;11.70;99.90;;;;;;5075035;28;20205;-69
2022/04/12 01:28:58;;;;;;;;;;;11.70;99.90;;;;;;5074591;28;19919;-69
2022/04/12 01:31:25;;;;;;;;;;;11.70;99.90;;;;;;5074496;28;19931;-66
2022/04/12 01:33:51;;;;;;;;;;;11.60;99.90;;;;;;5074472;28;20355;-68
2022/04/12 01:36:18;;;;;;;;;;;11.60;99.90;;;;;;5074730;28;19912;-69
2022/04/12 01:38:44;;;;;;;;;;;11.60;99.90;;;;;;5073175;28;19908;-69
2022/04/12 01:41:09;;;;;;;;;;;11.60;99.90;;;;;;5074717;28;19954;-70
2022/04/12 01:43:35;;;;;;;;;;;11.50;99.90;;;;;;5074351;28;19917;-69
2022/04/12 01:46:01;;;;;;;;;;;11.60;99.90;;;;;;5074347;28;19947;-69
2022/04/12 01:48:27;;;;;;;;;;;11.50;99.90;;;;;;5074168;28;19961;-69
2022/04/12 01:50:53;;;;;;;;;;;11.50;99.90;;;;;;5074118;28;20003;-69
2022/04/12 01:53:18;;;;;;;;;;;11.50;99.90;;;;;;5056026;28;19916;-70
2022/04/12 01:55:45;;;;;;;;;;;11.40;99.90;;;;;;5074259;28;19916;-70
2022/04/12 01:58:11;;;;;;;;;;;11.40;99.90;;;;;;5074307;28;20322;-69
2022/04/12 02:00:37;;;;;;;;;;;11.30;99.90;;;;;;5074232;28;20075;-69
2022/04/12 02:03:04;;;;;;;;;;;11.20;99.90;;;;;;5073743;28;19978;-69
2022/04/12 02:05:30;;;;;;;;;;;11.20;99.90;;;;;;5074006;28;19924;-69
2022/04/12 02:07:56;;;;;;;;;;;11.10;99.90;;;;;;5073747;28;19908;-70
2022/04/12 02:10:22;;;;;;;;;;;11.10;99.90;;;;;;5074112;28;20221;-69
2022/04/12 02:12:49;;;;;;;;;;;11.00;99.90;;;;;;5073480;28;19955;-69
2022/04/12 02:15:15;;;;;;;;;;;10.90;99.90;;;;;;5073142;28;20421;-70
2022/04/12 02:17:41;;;;;;;;;;;10.90;99.90;;;;;;5072476;28;19947;-69
2022/04/12 02:20:07;;;;;;;;;;;10.90;99.90;;;;;;5072683;28;19996;-69
2022/04/12 02:22:33;;;;;;;;;;;11.00;99.90;;;;;;5067787;28;19916;-68
2022/04/12 02:24:59;;;;;;;;;;;10.90;99.90;;;;;;5035295;28;19965;-68
2022/04/12 02:27:25;;;;;;;;;;;10.90;99.90;;;;;;5053846;28;19921;-69
2022/04/12 02:29:51;;;;;;;;;;;10.90;99.90;;;;;;5053459;28;19999;-69
2022/04/12 02:32:16;;;;;;;;;;;10.90;99.90;;;;;;5053421;28;20277;-69
2022/04/12 02:34:42;;;;;;;;;;;10.90;99.90;;;;;;5053341;28;20373;-69
2022/04/12 02:37:08;;;;;;;;;;;10.90;99.90;;;;;;5052801;28;19913;-69
2022/04/12 02:39:34;;;;;;;;;;;10.90;99.90;;;;;;5052546;28;19920;-69
2022/04/12 02:41:59;;;;;;;;;;;10.90;99.90;;;;;;5052801;28;19947;-69
2022/04/12 02:44:25;;;;;;;;;;;10.80;99.90;;;;;;5069275;28;20398;-68
2022/04/12 02:46:51;;;;;;;;;;;10.80;99.90;;;;;;5073255;28;19909;-69
2022/04/12 02:49:17;;;;;;;;;;;10.80;99.90;;;;;;5073205;28;20375;-69
2022/04/12 02:51:43;;;;;;;;;;;10.80;99.90;;;;;;5073064;28;19974;-69
2022/04/12 02:54:09;;;;;;;;;;;10.80;99.90;;;;;;5073047;28;20371;-69
2022/04/12 02:56:34;;;;;;;;;;;10.70;99.90;;;;;;5072812;28;19958;-68
2022/04/12 02:59:00;;;;;;;;;;;10.70;99.90;;;;;;5072967;28;19918;-68
2022/04/12 03:01:26;;;;;;;;;;;10.70;99.90;;;;;;5073381;28;20000;-69
2022/04/12 03:03:52;;;;;;;;;;;10.80;99.90;;;;;;5072916;28;19917;-69
2022/04/12 03:06:17;;;;;;;;;;;10.70;99.90;;;;;;5073461;28;19920;-69
2022/04/12 03:08:43;;;;;;;;;;;10.70;99.90;;;;;;5073612;28;19931;-69
2022/04/12 03:11:09;;;;;;;;;;;10.70;99.90;;;;;;5073768;28;19995;-68
2022/04/12 03:13:35;;;;;;;;;;;10.70;99.90;;;;;;5070406;28;19913;-67
2022/04/12 03:16:01;;;;;;;;;;;10.70;99.90;;;;;;5053742;28;19909;-71
2022/04/12 03:18:26;;;;;;;;;;;10.70;99.90;;;;;;5053413;28;19908;-67
2022/04/12 03:20:53;;;;;;;;;;;10.80;99.90;;;;;;5053068;28;20414;-67
2022/04/12 03:23:19;;;;;;;;;;;10.70;99.90;;;;;;5052847;28;19924;-67
2022/04/12 03:25:46;;;;;;;;;;;10.80;99.90;;;;;;5035872;28;20361;-70
2022/04/12 03:28:12;;;;;;;;;;;10.80;99.90;;;;;;5054128;28;20272;-68
2022/04/12 03:30:38;;;;;;;;;;;10.80;99.90;;;;;;5054230;28;19996;-70
2022/04/12 03:33:04;;;;;;;;;;;10.80;99.90;;;;;;5053785;28;19932;-68
2022/04/12 03:35:30;;;;;;;;;;;10.80;99.90;;;;;;5053671;28;20322;-66
2022/04/12 03:38:01;;;;;;;;;;;10.80;99.90;;;;;;5054211;28;19956;-70
2022/04/12 03:40:30;;;;;;;;;;;10.70;99.90;;;;;;5053972;28;19916;-68
2022/04/12 03:43:04;;;;;;;;;;;10.70;99.90;;;;;;5053552;28;19917;-67
2022/04/12 03:45:30;;;;;;;;;;;10.70;99.90;;;;;;5053888;28;19978;-67
2022/04/12 03:47:56;;;;;;;;;;;10.70;99.90;;;;;;5054022;28;19991;-68
2022/04/12 03:50:22;;;;;;;;;;;10.70;99.90;;;;;;5053493;28;19952;-67
2022/04/12 03:52:48;;;;;;;;;;;10.70;99.90;;;;;;5053966;28;19913;-67
2022/04/12 03:55:14;;;;;;;;;;;10.70;99.90;;;;;;5053439;28;19947;-67
2022/04/12 03:57:40;;;;;;;;;;;10.70;99.90;;;;;;5053313;28;19948;-67
2022/04/12 04:00:08;;;;;;;;;;;10.70;99.90;;;;;;5053219;28;19909;-68
2022/04/12 04:02:36;;;;;;;;;;;10.70;99.90;;;;;;5053606;28;19917;-70
2022/04/12 04:05:03;;;;;;;;;;;10.70;99.90;;;;;;5053254;28;20384;-69
2022/04/12 04:07:28;;;;;;;;;;;10.60;99.90;;;;;;5053755;28;19913;-67
2022/04/12 04:09:54;;;;;;;;;;;10.70;99.90;;;;;;5053028;28;19970;-68
2022/04/12 04:12:20;;;;;;;;;;;10.60;99.90;;;;;;5053310;28;19911;-68
2022/04/12 04:14:47;;;;;;;;;;;10.60;99.90;;;;;;5053253;28;19909;-68
2022/04/12 04:17:12;;;;;;;;;;;10.60;99.90;;;;;;5053851;28;19956;-67
2022/04/12 04:19:38;;;;;;;;;;;10.60;99.90;;;;;;5053642;28;19947;-68
2022/04/12 04:22:05;;;;;;;;;;;10.60;99.90;;;;;;5053464;28;19921;-68
2022/04/12 04:24:30;;;;;;;;;;;10.60;99.90;;;;;;5053580;28;19913;-69
2022/04/12 04:26:56;;;;;;;;;;;10.60;99.90;;;;;;5053567;28;20323;-68
2022/04/12 04:29:23;;;;;;;;;;;10.70;99.90;;;;;;5053799;28;20008;-67
2022/04/12 04:31:50;;;;;;;;;;;10.80;99.90;;;;;;5054109;28;19909;-68
2022/04/12 04:34:16;;;;;;;;;;;10.70;99.90;;;;;;5053625;28;19913;-70
2022/04/12 04:36:42;;;;;;;;;;;10.70;99.90;;;;;;5053701;28;20375;-70
2022/04/12 04:39:08;;;;;;;;;;;10.70;99.90;;;;;;5035488;28;19919;-69
2022/04/12 04:41:34;;;;;;;;;;;10.70;99.90;;;;;;5053761;28;19912;-69
2022/04/12 04:44:00;;;;;;;;;;;10.70;99.90;;;;;;5053101;28;19972;-68
2022/04/12 04:46:26;;;;;;;;;;;10.60;99.90;;;;;;5052851;28;19915;-69
2022/04/12 04:48:52;;;;;;;;;;;10.60;99.90;;;;;;5052503;28;19991;-68
2022/04/12 04:51:18;;;;;;;;;;;10.60;99.90;;;;;;5035496;28;19908;-69
2022/04/12 04:53:49;;;;;;;;;;;10.50;99.90;;;;;;5053235;28;19908;-68
2022/04/12 04:56:15;;;;;;;;;;;10.60;99.90;;;;;;5053957;28;19928;-69
2022/04/12 04:58:41;;;;;;;;;;;10.60;99.90;;;;;;5061074;28;19913;-69
2022/04/12 05:01:07;;;;;;;;;;;10.60;99.90;;;;;;5069592;28;19923;-69
2022/04/12 05:03:33;;;;;;;;;;;10.70;99.90;;;;;;5055196;28;20316;-69
2022/04/12 05:05:58;;;;;;;;;;;10.60;99.90;;;;;;5052948;28;19999;-68
2022/04/12 05:08:24;;;;;;;;;;;10.70;99.90;;;;;;5053031;28;19915;-68
2022/04/12 05:10:51;;;;;;;;;;;10.70;99.90;;;;;;5052867;28;19909;-67
2022/04/12 05:13:16;;;;;;;;;;;10.70;99.90;;;;;;5053128;28;19908;-68
2022/04/12 05:15:42;;;;;;;;;;;10.60;99.90;;;;;;5065351;28;20000;-66
2022/04/12 05:18:08;;;;;;;;;;;10.60;99.90;;;;;;5071466;28;20362;-67
2022/04/12 05:20:34;;;;;;;;;;;10.60;99.90;;;;;;5071607;28;19927;-68
2022/04/12 05:23:00;;;;;;;;;;;10.70;99.90;;;;;;5071610;28;19946;-68
2022/04/12 05:25:26;;;;;;;;;;;11.30;99.90;;;;;;5071751;28;19916;-63
2022/04/12 05:27:52;;;;;;;;;;;12.20;99.90;;;;;;5071707;28;19909;-64
2022/04/12 05:30:18;;;;;;;;;;;13.10;99.90;;;;;;5065035;28;19951;-68
2022/04/12 05:32:44;;;;;;;;;;;13.60;99.90;;;;;;5071139;28;19948;-69
2022/04/12 05:35:11;;;;;;;;;;;14.10;99.90;;;;;;5072020;28;19908;-68
2022/04/12 05:37:46;;;;;;;;;;;15.10;99.90;;;;;;5065540;28;19974;-67
2022/04/12 05:40:13;;;;;;;;;;;15.60;99.90;;;;;;5052115;28;19916;-68
2022/04/12 05:42:39;;;;;;;;;;;16.30;99.90;;;;;;5050609;28;20019;-67
2022/04/12 05:45:06;;;;;;;;;;;16.50;99.90;;;;;;5062049;28;19913;-66
2022/04/12 05:47:45;;;;;;;;;;;16.80;99.90;;;;;;5059375;28;19909;-69
2022/04/12 05:50:12;;;;;;;;;;;17.30;99.90;;;;;;5051296;28;20337;-70
2022/04/12 05:52:40;;;;;;;;;;;18.10;97.90;;;;;;5051471;28;19934;-69
2022/04/12 05:55:07;;;;;;;;;;;18.40;97.40;;;;;;5051043;28;20008;-69
2022/04/12 05:57:47;;;;;;;;;;;18.60;96.70;;;;;;5051429;28;19908;-69
2022/04/12 06:00:13;;;;;;;;;;;19.40;95.90;;;;;;5036283;28;19920;-67
2022/04/12 06:02:39;;;;;;;;;;;20.30;94.10;;;;;;5054179;28;20066;-68
2022/04/12 06:05:05;;;;;;;;;;;20.80;93.30;;;;;;5054303;28;20045;-68
2022/04/12 06:07:32;;;;;;;;;;;21.20;92.10;;;;;;5054288;28;19909;-68
2022/04/12 06:09:59;;;;;;;;;;;21.60;91.90;;;;;;5053438;28;19909;-67
2022/04/12 06:12:25;;;;;;;;;;;22.40;90.60;;;;;;5053763;28;19908;-68
2022/04/12 06:14:51;;;;;;;;;;;22.50;89.30;;;;;;5054273;28;19909;-67
2022/04/12 06:17:17;;;;;;;;;;;22.60;90.40;;;;;;5054486;28;19916;-68
2022/04/12 06:19:42;;;;;;;;;;;23.20;87.40;;;;;;5055038;28;20372;-68
2022/04/12 06:22:08;;;;;;;;;;;23.70;85.50;;;;;;5054917;28;19921;-74
2022/04/12 06:24:34;;;;;;;;;;;22.10;88.60;;;;;;5055019;28;19913;-70
2022/04/12 06:27:00;;;;;;;;;;;21.20;90.20;;;;;;5054896;28;19916;-70
2022/04/12 06:29:27;;;;;;;;;;;20.20;91.40;;;;;;5054800;28;19909;-69
2022/04/12 06:31:52;;;;;;;;;;;21.50;91.40;;;;;;5055470;28;19915;-69
2022/04/12 06:34:18;;;;;;;;;;;22.80;88.00;;;;;;5054742;28;20012;-70
2022/04/12 06:36:44;;;;;;;;;;;22.40;86.30;;;;;;5054996;28;19959;-69
2022/04/12 06:39:10;;;;;;;;;;;22.10;88.00;;;;;;5054795;28;19939;-69
2022/04/12 06:41:35;;;;;;;;;;;22.30;88.10;;;;;;5054609;28;19916;-70
2022/04/12 06:44:01;;;;;;;;;;;23.50;85.80;;;;;;5055095;28;20015;-70
2022/04/12 06:46:27;;;;;;;;;;;24.30;83.00;;;;;;5054600;28;19913;-69
2022/04/12 06:48:53;;;;;;;;;;;26.10;80.80;;;;;;5054699;28;19908;-72
2022/04/12 06:51:19;;;;;;;;;;;28.10;75.20;;;;;;5054555;28;20325;-71
2022/04/12 06:53:45;;;;;;;;;;;27.40;72.80;;;;;;5036549;28;20042;-70
2022/04/12 06:56:11;;;;;;;;;;;25.30;77.40;;;;;;5054647;28;19916;-69
2022/04/12 06:58:37;;;;;;;;;;;24.60;76.50;;;;;;5054509;28;19909;-71
2022/04/12 07:01:02;;;;;;;;;;;25.60;77.40;;;;;;5053951;28;19909;-70
2022/04/12 07:03:28;;;;;;;;;;;24.80;75.50;;;;;;5054013;28;19917;-71
2022/04/12 07:05:56;;;;;;;;;;;24.70;77.80;;;;;;5054086;28;19963;-70
2022/04/12 07:08:24;;;;;;;;;;;24.40;75.90;;;;;;5053633;28;19909;-70
2022/04/12 07:10:50;;;;;;;;;;;22.60;80.80;;;;;;5054031;28;19915;-69
2022/04/12 07:13:16;;;;;;;;;;;21.20;84.40;;;;;;5054512;28;19920;-71
2022/04/12 07:15:43;;;;;;;;;;;21.90;82.50;;;;;;5054012;28;19912;-69
2022/04/12 07:18:47;;;;;;;;;;;21.30;82.70;;;;;;5053879;28;19917;-68
2022/04/12 07:21:57;;;;;;;;;;;21.20;85.60;;;;;;5051406;28;19921;-68
2022/04/12 07:25:04;;;;;;;;;;;21.80;83.10;;;;;;5053691;28;20007;-65
2022/04/12 07:27:36;;;;;;;;;;;21.40;83.90;;;;;;5053519;28;19913;-70
2022/04/12 07:30:03;;;;;;;;;;;22.30;82.50;;;;;;5053997;28;19920;-71
2022/04/12 07:32:29;;;;;;;;;;;21.00;84.00;;;;;;5053997;28;19992;-69
2022/04/12 07:34:54;;;;;;;;;;;21.00;84.30;;;;;;5053604;28;19956;-71
2022/04/12 07:37:20;;;;;;;;;;;21.00;85.30;;;;;;5035535;28;19966;-73
2022/04/12 07:39:46;;;;;;;;;;;20.50;84.00;;;;;;5035559;28;19915;-71
2022/04/12 07:42:13;;;;;;;;;;;19.80;87.00;;;;;;5035838;28;19939;-71
2022/04/12 07:44:39;;;;;;;;;;;19.50;88.90;;;;;;5053360;28;20300;-71
2022/04/12 07:47:05;;;;;;;;;;;19.50;88.90;;;;;;5053860;28;20349;-72
2022/04/12 07:49:31;;;;;;;;;;;19.50;89.60;;;;;;5052606;28;19913;-71
2022/04/12 07:51:57;;;;;;;;;;;19.60;88.40;;;;;;5052724;28;19931;-70
2022/04/12 07:54:23;;;;;;;;;;;19.40;89.20;;;;;;5052734;28;19920;-70
2022/04/12 07:56:48;;;;;;;;;;;18.80;90.60;;;;;;5052368;28;19916;-70
2022/04/12 07:59:14;;;;;;;;;;;19.00;89.50;;;;;;5052177;28;20013;-70
2022/04/12 08:01:40;;;;;;;;;;;19.20;85.40;;;;;;5052635;28;19927;-70
2022/04/12 08:04:06;;;;;;;;;;;19.40;86.90;;;;;;5052253;28;19923;-71
2022/04/12 08:06:32;;;;;;;;;;;19.30;88.20;;;;;;5052474;28;20337;-70
2022/04/12 08:08:58;;;;;;;;;;;19.30;88.30;;;;;;5052080;28;20383;-71
2022/04/12 08:11:23;;;;;;;;;;;19.70;89.90;;;;;;5052941;28;19929;-70
2022/04/12 08:13:49;;;;;;;;;;;19.70;87.60;;;;;;5051991;28;20416;-70
2022/04/12 08:16:15;;;;;;;;;;;19.70;86.20;;;;;;5051979;28;19909;-71
2022/04/12 08:18:43;;;;;;;;;;;19.70;84.90;;;;;;5053396;28;19909;-72
2022/04/12 08:21:08;;;;;;;;;;;19.80;86.20;;;;;;5051860;28;19920;-71
2022/04/12 08:23:34;;;;;;;;;;;19.60;86.00;;;;;;5052623;28;19920;-70
2022/04/12 08:26:00;;;;;;;;;;;19.40;85.60;;;;;;5052639;28;19925;-70
2022/04/12 08:28:26;;;;;;;;;;;18.90;83.70;;;;;;5052521;28;19944;-70
2022/04/12 08:30:52;;;;;;;;;;;18.20;84.90;;;;;;5052871;28;20342;-71
2022/04/12 08:33:18;;;;;;;;;;;18.20;85.90;;;;;;5052700;28;20284;-71
2022/04/12 08:35:43;;;;;;;;;;;18.30;87.10;;;;;;5052555;28;19915;-71
2022/04/12 08:38:09;;;;;;;;;;;18.40;88.20;;;;;;5052626;28;19955;-70
2022/04/12 08:40:36;;;;;;;;;;;18.20;86.60;;;;;;5052608;28;19915;-70
2022/04/12 08:43:02;;;;;;;;;;;18.30;85.80;;;;;;5050999;28;19924;-70
2022/04/12 08:45:28;;;;;;;;;;;18.20;87.80;;;;;;5052726;28;19999;-71
2022/04/12 08:47:53;;;;;;;;;;;17.90;89.00;;;;;;5035486;28;19908;-71
2022/04/12 08:50:21;;;;;;;;;;;17.90;88.10;;;;;;5034202;28;19920;-70
2022/04/12 08:52:47;;;;;;;;;;;18.30;88.60;;;;;;5054523;28;19913;-70
2022/04/12 08:55:13;;;;;;;;;;;19.00;87.90;;;;;;5052109;28;19942;-70
2022/04/12 08:57:39;;;;;;;;;;;18.90;85.40;;;;;;5063539;28;20058;-69
2022/04/12 09:00:06;;;;;;;;;;;18.80;84.00;;;;;;5035221;28;19948;-70
2022/04/12 09:02:32;;;;;;;;;;;18.80;83.90;;;;;;5051930;28;19913;-70
2022/04/12 09:04:58;;;;;;;;;;;19.00;84.50;;;;;;5051816;28;19919;-71
2022/04/12 09:07:28;;;;;;;;;;;19.30;86.40;;;;;;5052134;28;19909;-71
2022/04/12 09:10:03;;;;;;;;;;;19.80;88.70;;;;;;5033596;28;19930;-70
2022/04/12 09:12:31;;;;;;;;;;;19.80;88.20;;;;;;5052438;28;20003;-71
2022/04/12 09:14:58;;;;;;;;;;;19.50;87.20;;;;;;5052207;28;19946;-71
2022/04/12 09:17:36;;;;;;;;;;;19.30;88.50;;;;;;5051952;28;19909;-70
2022/04/12 09:20:10;;;;;;;;;;;19.20;84.00;;;;;;5051421;28;19955;-71
2022/04/12 09:22:35;;;;;;;;;;;19.10;82.30;;;;;;5051958;28;19921;-69
2022/04/12 09:25:02;;;;;;;;;;;19.00;83.80;;;;;;5053582;28;20426;-69
2022/04/12 09:27:32;;;;;;;;;;;19.20;85.00;;;;;;5071285;28;19924;-69
2022/04/12 09:30:02;;;;;;;;;;;19.40;88.50;;;;;;5072021;28;19908;-70
2022/04/12 09:32:29;;;;;;;;;;;19.40;87.40;;;;;;5073209;28;19962;-69
2022/04/12 09:34:55;;;;;;;;;;;19.50;87.60;;;;;;5075196;28;19909;-69
2022/04/12 09:37:24;;;;;;;;;;;19.60;87.30;;;;;;5074936;28;19924;-70
2022/04/12 09:39:57;;;;;;;;;;;19.50;87.90;;;;;;5075769;28;20226;-69
2022/04/12 09:42:41;;;;;;;;;;;19.60;87.10;;;;;;5074834;28;19916;-71
2022/04/12 09:45:07;;;;;;;;;;;19.50;86.80;;;;;;5075336;28;19915;-70
2022/04/12 09:47:33;;;;;;;;;;;19.60;85.10;;;;;;5075150;28;19909;-70
2022/04/12 09:50:00;;;;;;;;;;;19.00;78.70;;;;;;5074782;28;19958;-71
2022/04/12 09:52:27;;;;;;;;;;;19.10;82.50;;;;;;5073100;28;20011;-71
2022/04/12 09:54:53;;;;;;;;;;;19.30;84.50;;;;;;5073207;28;20361;-71
2022/04/12 09:57:20;;;;;;;;;;;19.00;69.30;;;;;;5075029;28;19958;-72
2022/04/12 09:59:46;;;;;;;;;;;19.00;72.60;;;;;;5074377;28;19913;-71
2022/04/12 10:02:12;;;;;;;;;;;19.00;74.20;;;;;;5074655;28;19916;-72
2022/04/12 10:04:38;;;;;;;;;;;19.00;73.60;;;;;;5072965;28;19908;-71
2022/04/12 10:07:07;;;;;;;;;;;19.10;72.90;;;;;;5065630;28;19917;-70
2022/04/12 10:09:35;;;;;;;;;;;19.00;72.70;;;;;;5054351;28;19954;-72
2022/04/12 10:12:00;;;;;;;;;;;19.00;76.00;;;;;;5054149;28;19909;-71
2022/04/12 10:14:26;;;;;;;;;;;19.00;70.70;;;;;;5053979;28;19916;-70
2022/04/12 10:16:54;;;;;;;;;;;18.80;69.90;;;;;;5054197;28;19909;-70
2022/04/12 10:19:20;;;;;;;;;;;18.70;71.10;;;;;;5053433;28;19913;-71
2022/04/12 10:21:46;;;;;;;;;;;18.80;75.80;;;;;;5053681;28;19921;-71
2022/04/12 10:24:12;;;;;;;;;;;18.90;78.10;;;;;;5053984;28;19920;-71
2022/04/12 10:26:38;;;;;;;;;;;19.10;76.90;;;;;;5054562;28;20383;-71
2022/04/12 10:29:06;;;;;;;;;;;19.30;79.30;;;;;;5054283;28;19955;-72
2022/04/12 10:31:32;;;;;;;;;;;19.40;79.50;;;;;;5053963;28;19940;-70
2022/04/12 10:34:01;;;;;;;;;;;19.30;72.60;;;;;;5053963;28;20047;-70
2022/04/12 10:36:45;;;;;;;;;;;19.40;74.70;;;;;;5053656;28;20349;-71
2022/04/12 10:39:14;;;;;;;;;;;19.40;72.40;;;;;;5053764;28;19909;-71
2022/04/12 10:41:42;;;;;;;;;;;19.40;72.90;;;;;;5053192;28;19966;-71
2022/04/12 10:44:18;;;;;;;;;;;19.50;71.80;;;;;;5052538;28;20019;-70
2022/04/12 10:46:47;;;;;;;;;;;19.50;77.40;;;;;;5053638;28;20003;-70
2022/04/12 10:49:17;;;;;;;;;;;19.30;72.70;;;;;;5053723;28;19908;-71
2022/04/12 10:51:43;;;;;;;;;;;19.30;70.90;;;;;;5053576;28;20030;-71
2022/04/12 10:54:28;;;;;;;;;;;19.60;74.20;;;;;;5054072;28;20038;-71
2022/04/12 10:57:13;;;;;;;;;;;19.40;71.90;;;;;;5053798;28;19908;-70
2022/04/12 10:59:39;;;;;;;;;;;19.50;69.90;;;;;;5054182;28;19915;-70
2022/04/12 11:02:12;;;;;;;;;;;19.80;71.50;;;;;;5054022;28;19917;-70
2022/04/12 11:04:38;;;;;;;;;;;20.10;75.70;;;;;;5053804;28;20275;-71
2022/04/12 11:07:06;;;;;;;;;;;19.50;64.80;;;;;;5054125;28;19916;-71
2022/04/12 11:09:32;;;;;;;;;;;19.10;71.80;;;;;;5054097;28;19997;-71
2022/04/12 11:12:01;;;;;;;;;;;19.30;72.80;;;;;;5054090;28;19916;-71
2022/04/12 11:14:28;;;;;;;;;;;19.40;69.70;;;;;;5052873;28;19909;-70
2022/04/12 11:16:55;;;;;;;;;;;19.80;69.90;;;;;;5053184;28;19989;-70
2022/04/12 11:19:22;;;;;;;;;;;19.90;78.10;;;;;;5053994;28;19908;-71
2022/04/12 11:21:51;;;;;;;;;;;19.80;78.50;;;;;;5053354;28;20396;-71
2022/04/12 11:24:17;;;;;;;;;;;19.90;80.50;;;;;;5053560;28;20421;-71
2022/04/12 11:27:02;;;;;;;;;;;19.90;79.60;;;;;;5053656;28;20010;-71
2022/04/12 11:29:28;;;;;;;;;;;19.90;80.00;;;;;;5053568;28;19908;-71
2022/04/12 11:31:54;;;;;;;;;;;20.00;79.10;;;;;;5035677;28;19909;-72
2022/04/12 11:34:21;;;;;;;;;;;19.90;79.70;;;;;;5052415;28;19931;-71
2022/04/12 11:36:51;;;;;;;;;;;19.80;80.30;;;;;;5053676;28;19954;-71
2022/04/12 11:39:18;;;;;;;;;;;19.80;80.40;;;;;;5053688;28;19935;-71
2022/04/12 11:41:44;;;;;;;;;;;20.00;79.70;;;;;;5035170;28;20246;-71
2022/04/12 11:44:09;;;;;;;;;;;19.90;78.20;;;;;;5053321;28;20280;-70
2022/04/12 11:46:36;;;;;;;;;;;19.90;76.50;;;;;;5053142;28;19916;-70
2022/04/12 11:49:05;;;;;;;;;;;20.00;77.80;;;;;;5053380;28;19919;-71
2022/04/12 11:51:35;;;;;;;;;;;20.10;77.40;;;;;;5052688;28;19919;-71
2022/04/12 11:54:01;;;;;;;;;;;20.00;75.10;;;;;;5052991;28;20368;-71
2022/04/12 11:56:28;;;;;;;;;;;20.00;78.90;;;;;;5052818;28;19908;-70
2022/04/12 11:58:54;;;;;;;;;;;20.10;80.20;;;;;;5052491;28;19909;-70
2022/04/12 12:01:29;;;;;;;;;;;20.20;81.10;;;;;;5053091;28;19942;-70
2022/04/12 12:04:03;;;;;;;;;;;20.30;77.00;;;;;;5053587;28;20367;-68
2022/04/12 12:06:29;;;;;;;;;;;20.30;78.00;;;;;;5053295;28;19916;-69
2022/04/12 12:08:55;;;;;;;;;;;20.10;79.60;;;;;;5052996;28;19909;-70
2022/04/12 12:11:22;;;;;;;;;;;20.30;80.40;;;;;;5053136;28;19959;-68
2022/04/12 12:13:58;;;;;;;;;;;20.30;75.90;;;;;;5057616;28;19999;-70
2022/04/12 12:16:24;;;;;;;;;;;20.30;75.30;;;;;;5073052;28;20057;-69
2022/04/12 12:18:50;;;;;;;;;;;20.20;81.40;;;;;;5063700;28;20417;-70
2022/04/12 12:21:19;;;;;;;;;;;20.00;80.70;;;;;;5053391;28;19920;-69
2022/04/12 12:23:46;;;;;;;;;;;20.00;81.20;;;;;;5053985;28;20015;-71
2022/04/12 12:26:26;;;;;;;;;;;20.00;83.90;;;;;;5067614;28;20821;-68
2022/04/12 12:28:55;;;;;;;;;;;19.90;81.50;;;;;;5071470;28;19908;-69
2022/04/12 12:31:21;;;;;;;;;;;19.90;81.90;;;;;;5073335;28;20313;-69
2022/04/12 12:33:47;;;;;;;;;;;20.10;82.90;;;;;;5073889;28;19916;-69
2022/04/12 12:36:17;;;;;;;;;;;20.10;81.70;;;;;;5073278;28;19990;-71
2022/04/12 12:38:44;;;;;;;;;;;20.00;81.80;;;;;;5073168;28;20248;-69
2022/04/12 12:41:10;;;;;;;;;;;19.90;81.40;;;;;;5054995;28;19908;-69
2022/04/12 12:43:35;;;;;;;;;;;19.70;81.20;;;;;;5073593;28;19969;-69
2022/04/12 12:46:07;;;;;;;;;;;19.80;81.30;;;;;;5073261;28;19909;-70
2022/04/12 12:48:33;;;;;;;;;;;19.90;80.00;;;;;;5073000;28;19909;-69
2022/04/12 12:51:05;;;;;;;;;;;19.80;77.30;;;;;;5072735;28;19961;-70
2022/04/12 12:53:31;;;;;;;;;;;20.00;78.70;;;;;;5073126;28;20376;-69
2022/04/12 12:55:56;;;;;;;;;;;20.00;80.30;;;;;;5072711;28;20001;-69
2022/04/12 12:58:29;;;;;;;;;;;19.70;81.30;;;;;;5073269;28;19909;-69
2022/04/12 13:01:02;;;;;;;;;;;19.80;81.80;;;;;;5072884;28;20097;-69
2022/04/12 13:03:28;;;;;;;;;;;19.70;81.20;;;;;;5072496;28;19916;-68
2022/04/12 13:05:58;;;;;;;;;;;19.70;81.60;;;;;;5054620;28;19915;-69
2022/04/12 13:08:25;;;;;;;;;;;19.80;81.10;;;;;;5076129;28;20025;-69
2022/04/12 13:10:52;;;;;;;;;;;19.80;81.70;;;;;;5076758;28;19951;-69
2022/04/12 13:13:17;;;;;;;;;;;19.90;82.60;;;;;;5066215;28;19913;-69
2022/04/12 13:15:45;;;;;;;;;;;19.70;82.60;;;;;;5066546;28;20042;-68
2022/04/12 13:18:11;;;;;;;;;;;19.50;81.10;;;;;;5076597;28;19918;-71
2022/04/12 13:20:37;;;;;;;;;;;19.20;83.50;;;;;;5073609;28;19988;-69
2022/04/12 13:23:05;;;;;;;;;;;18.60;82.60;;;;;;5077014;28;20015;-68
2022/04/12 13:25:31;;;;;;;;;;;18.90;81.40;;;;;;5076972;28;19917;-69
2022/04/12 13:27:57;;;;;;;;;;;18.90;81.00;;;;;;5076825;28;19908;-69
2022/04/12 13:30:23;;;;;;;;;;;18.90;79.60;;;;;;5070641;28;19916;-69
2022/04/12 13:32:49;;;;;;;;;;;18.90;81.50;;;;;;5056874;28;19909;-69
2022/04/12 13:35:17;;;;;;;;;;;19.00;78.90;;;;;;5056360;28;20464;-69
2022/04/12 13:37:43;;;;;;;;;;;18.70;80.30;;;;;;5056279;28;20319;-69
2022/04/12 13:40:10;;;;;;;;;;;18.20;82.10;;;;;;5056627;28;19916;-70
2022/04/12 13:42:36;;;;;;;;;;;18.30;85.20;;;;;;5038228;28;19921;-70
2022/04/12 13:45:02;;;;;;;;;;;18.50;84.40;;;;;;5056856;28;19908;-70
2022/04/12 13:47:28;;;;;;;;;;;18.50;85.10;;;;;;5056113;28;20006;-69
2022/04/12 13:49:56;;;;;;;;;;;18.50;83.70;;;;;;5055682;28;20340;-69
2022/04/12 13:52:24;;;;;;;;;;;18.40;83.20;;;;;;5056109;28;19909;-69
2022/04/12 13:54:50;;;;;;;;;;;18.20;84.10;;;;;;5055427;28;19909;-70
2022/04/12 13:57:15;;;;;;;;;;;18.40;85.00;;;;;;5055170;28;19999;-69
2022/04/12 13:59:41;;;;;;;;;;;18.50;86.40;;;;;;5055314;28;19959;-69
2022/04/12 14:02:07;;;;;;;;;;;18.60;85.80;;;;;;5055002;28;19909;-69
2022/04/12 14:04:33;;;;;;;;;;;18.30;84.50;;;;;;5055362;28;20322;-70
2022/04/12 14:06:59;;;;;;;;;;;18.10;84.70;;;;;;5055126;28;19913;-69
2022/04/12 14:09:25;;;;;;;;;;;18.30;84.40;;;;;;5037698;28;19920;-69
2022/04/12 14:11:52;;;;;;;;;;;18.10;85.90;;;;;;5055061;28;19917;-70
2022/04/12 14:14:18;;;;;;;;;;;17.80;88.40;;;;;;5055930;28;19915;-69
2022/04/12 14:16:44;;;;;;;;;;;17.90;87.00;;;;;;5074809;28;19956;-70
2022/04/12 14:19:11;;;;;;;;;;;18.00;88.00;;;;;;5073274;28;19938;-70